Bramham, United Kingdom
Current Conditions -  °F | °C
As of 5:50 PM on Friday 31 Oct 2014 (Local Time) from EGNM Reporting Station
Clear Clear  
Wind Chill: 17°   Ceiling: Unl
Heat Index: 17°   Visibility: 6mi
Dew Point: 12°   Wind: 15mph
Humidity: 72%   Direction: 180°S
Pressure: 29.83"   Gusts: NA
Location:  53.88°N, 1.35°W
Report Text: EGNM 311750Z 18013KT 150V220 CAVOK 17/12 Q1010
Loading
Personal Weather Stations






























Interactive Weather Map
Tropical Storm Tracking
New forecast layout! Learn more

10-Day Weather Forecast

Advertisements
Track Severe Weather on mobile